Time;durP1;ratioP1;P1;durP2;ratioP2;P2;SDS_P1;SDS_P2;PMS_P1;PMS_P2;Temp;Humidity;BMP_temperature;BMP_pressure;BME280_temperature;BME280_humidity;BME280_pressure;Samples;Min_cycle;Max_cycle;Signal;HPM_P1;HPM_P2
2022/07/06 00:02:22;;;;;;;59.88;39.97;;;17.20;99.90;;;;;;5013832;28;20117;-91
2022/07/06 00:04:57;;;;;;;50.50;35.50;;;17.20;99.90;;;;;;5015198;28;20050;-90
2022/07/06 00:07:35;;;;;;;40.83;30.05;;;17.30;99.90;;;;;;5016461;28;20038;-87
2022/07/06 00:10:01;;;;;;;41.13;29.60;;;17.20;99.90;;;;;;5013202;28;20042;-87
2022/07/06 00:12:27;;;;;;;64.57;46.80;;;17.30;99.90;;;;;;5010689;28;20023;-87
2022/07/06 00:14:56;;;;;;;48.17;31.00;;;17.20;99.90;;;;;;5011414;28;20018;-90
2022/07/06 00:17:22;;;;;;;37.20;26.98;;;17.20;99.90;;;;;;5018664;28;20020;-92
2022/07/06 00:19:48;;;;;;;38.80;27.42;;;17.20;99.90;;;;;;5015497;28;20042;-88
2022/07/06 00:22:17;;;;;;;49.85;26.70;;;17.20;99.90;;;;;;5018421;28;20029;-88
2022/07/06 00:24:50;;;;;;;41.65;27.63;;;17.20;99.90;;;;;;5015098;28;20018;-88
2022/07/06 00:27:15;;;;;;;38.28;27.40;;;17.20;99.90;;;;;;5017610;28;20030;-93
2022/07/06 00:29:43;;;;;;;39.28;27.08;;;17.20;99.90;;;;;;5008935;28;20090;-91
2022/07/06 00:32:11;;;;;;;230.88;190.73;;;17.20;99.90;;;;;;5015053;28;20022;-92
2022/07/06 00:34:39;;;;;;;35.58;28.85;;;17.20;99.90;;;;;;5009992;28;20057;-90
2022/07/06 00:37:15;;;;;;;41.75;27.20;;;17.10;99.90;;;;;;5003580;28;20014;-87
2022/07/06 00:39:44;;;;;;;37.45;26.83;;;17.10;99.90;;;;;;5002338;28;20065;-88
2022/07/06 00:42:10;;;;;;;38.80;26.58;;;17.10;99.90;;;;;;5008624;28;20046;-87
2022/07/06 00:44:35;;;;;;;40.13;27.33;;;17.10;99.90;;;;;;5020239;28;20025;-88
2022/07/06 00:52:14;;;;;;;32.90;26.67;;;17.10;99.90;;;;;;5069219;28;20031;-64
2022/07/06 00:54:42;;;;;;;36.53;26.73;;;17.10;99.90;;;;;;5050764;28;20499;-65
2022/07/06 00:57:08;;;;;;;36.47;26.25;;;17.10;99.90;;;;;;5053173;28;20773;-66
2022/07/06 00:59:35;;;;;;;31.10;26.52;;;17.00;99.90;;;;;;5072032;28;20028;-64
2022/07/06 01:02:01;;;;;;;31.75;25.77;;;17.00;99.90;;;;;;5070434;28;20103;-64
2022/07/06 01:04:26;;;;;;;35.35;25.00;;;17.00;99.90;;;;;;5071849;28;20552;-63
2022/07/06 01:06:53;;;;;;;31.27;24.02;;;17.10;99.90;;;;;;5049941;28;20507;-64
2022/07/06 01:09:18;;;;;;;26.40;23.27;;;17.00;99.90;;;;;;5065549;28;20028;-63
2022/07/06 01:11:44;;;;;;;32.78;24.55;;;17.00;99.90;;;;;;5070620;28;20043;-63
2022/07/06 01:14:12;;;;;;;31.17;23.35;;;17.10;99.90;;;;;;5070886;28;20458;-63
2022/07/06 01:16:38;;;;;;;33.08;24.30;;;17.10;99.90;;;;;;5070374;28;20422;-66
2022/07/06 01:19:03;;;;;;;32.13;22.92;;;17.00;99.90;;;;;;5070342;28;20658;-64
2022/07/06 01:21:29;;;;;;;39.47;24.73;;;17.00;99.90;;;;;;5070319;28;20028;-64
2022/07/06 01:23:55;;;;;;;29.23;21.17;;;17.00;99.90;;;;;;5044314;28;20542;-63
2022/07/06 01:26:21;;;;;;;29.70;23.35;;;16.90;99.90;;;;;;5070349;28;20016;-64
2022/07/06 01:28:51;;;;;;;34.03;23.77;;;16.90;99.90;;;;;;5070426;28;20028;-64
2022/07/06 01:31:22;;;;;;;29.55;21.90;;;16.90;99.90;;;;;;5069595;28;20035;-64
2022/07/06 01:33:53;;;;;;;31.83;22.55;;;16.80;99.90;;;;;;5070051;28;20020;-67
2022/07/06 01:36:20;;;;;;;27.95;21.10;;;16.80;99.90;;;;;;5076205;28;20024;-68
2022/07/06 01:38:50;;;;;;;28.60;21.63;;;16.80;99.90;;;;;;5069231;28;20498;-66
2022/07/06 01:41:17;;;;;;;28.55;22.08;;;16.80;99.90;;;;;;5069672;28;20069;-68
2022/07/06 01:43:42;;;;;;;30.00;22.10;;;16.70;99.90;;;;;;5068805;28;20017;-64
2022/07/06 01:46:08;;;;;;;28.80;21.48;;;16.70;99.90;;;;;;5068874;28;20070;-65
2022/07/06 01:48:34;;;;;;;29.38;20.98;;;16.60;99.90;;;;;;5068314;28;20700;-64
2022/07/06 01:51:00;;;;;;;32.72;21.05;;;16.50;99.90;;;;;;5068553;28;20029;-65
2022/07/06 01:53:26;;;;;;;28.02;20.98;;;16.50;99.90;;;;;;5069244;28;20020;-63
2022/07/06 01:55:52;;;;;;;26.95;21.23;;;16.50;99.90;;;;;;5069734;28;20016;-63
2022/07/06 01:58:18;;;;;;;36.42;22.42;;;16.50;99.90;;;;;;5069789;28;20020;-64
2022/07/06 02:00:43;;;;;;;25.60;21.17;;;16.40;99.90;;;;;;5069884;28;20024;-65
2022/07/06 02:03:09;;;;;;;36.90;20.45;;;16.30;99.90;;;;;;5035357;28;20023;-67
2022/07/06 02:05:35;;;;;;;27.63;21.58;;;16.40;99.90;;;;;;5069524;28;20463;-65
2022/07/06 02:08:01;;;;;;;31.58;21.92;;;16.40;99.90;;;;;;5069584;28;20498;-64
2022/07/06 02:10:26;;;;;;;33.55;20.83;;;16.40;99.90;;;;;;5069655;28;20054;-65
2022/07/06 02:12:52;;;;;;;26.58;20.08;;;16.40;99.90;;;;;;5069715;28;20073;-68
2022/07/06 02:15:18;;;;;;;27.67;21.88;;;16.40;99.90;;;;;;5051465;28;20017;-65
2022/07/06 02:17:44;;;;;;;25.58;21.15;;;16.40;99.90;;;;;;5069527;28;20042;-65
2022/07/06 02:20:10;;;;;;;32.80;20.50;;;16.40;99.90;;;;;;5043165;28;20028;-67
2022/07/06 02:22:36;;;;;;;28.80;21.60;;;16.30;99.90;;;;;;5069706;28;20498;-67
2022/07/06 02:25:02;;;;;;;32.63;22.05;;;16.30;99.90;;;;;;5051584;28;20100;-65
2022/07/06 02:27:28;;;;;;;24.80;22.10;;;16.30;99.90;;;;;;5069643;28;20033;-68
2022/07/06 02:29:53;;;;;;;29.77;22.50;;;16.30;99.90;;;;;;5051240;28;20443;-65
2022/07/06 02:32:19;;;;;;;34.22;22.20;;;16.30;99.90;;;;;;5024087;28;20052;-64
2022/07/06 02:34:45;;;;;;;33.58;24.02;;;16.20;99.90;;;;;;5075116;28;20103;-66
2022/07/06 02:37:11;;;;;;;37.63;24.08;;;16.10;99.90;;;;;;5070503;28;20020;-67
2022/07/06 02:39:37;;;;;;;33.00;23.27;;;16.10;99.90;;;;;;5069810;28;20021;-65
2022/07/06 02:42:03;;;;;;;35.33;24.75;;;16.10;99.90;;;;;;5069381;28;20395;-65
2022/07/06 02:44:28;;;;;;;36.88;26.00;;;16.10;99.90;;;;;;5072269;28;20078;-65
2022/07/06 02:46:54;;;;;;;27.58;24.30;;;16.00;99.90;;;;;;5073153;28;20021;-67
2022/07/06 02:49:20;;;;;;;33.20;23.85;;;16.10;99.90;;;;;;5073338;28;20052;-62
2022/07/06 02:51:45;;;;;;;32.00;24.73;;;16.20;99.90;;;;;;5073881;28;20027;-63
2022/07/06 02:54:11;;;;;;;34.70;24.80;;;16.10;99.90;;;;;;5074290;28;20116;-66
2022/07/06 02:56:37;;;;;;;40.28;26.60;;;16.10;99.90;;;;;;5073914;28;20542;-65
2022/07/06 02:59:02;;;;;;;32.50;26.17;;;16.10;99.90;;;;;;5074481;28;20115;-64
2022/07/06 03:01:28;;;;;;;33.83;25.20;;;16.10;99.90;;;;;;5074256;28;20471;-64
2022/07/06 03:03:54;;;;;;;38.65;26.23;;;16.10;99.90;;;;;;5056495;28;20536;-66
2022/07/06 03:06:19;;;;;;;30.65;23.60;;;16.20;99.90;;;;;;5074110;28;20641;-66
2022/07/06 03:08:45;;;;;;;32.22;24.33;;;16.20;99.90;;;;;;5074274;28;20082;-65
2022/07/06 03:11:11;;;;;;;33.28;24.98;;;16.20;99.90;;;;;;5074203;28;20052;-65
2022/07/06 03:13:36;;;;;;;37.88;26.70;;;16.10;99.90;;;;;;5074243;28;20040;-66
2022/07/06 03:16:02;;;;;;;36.55;27.08;;;16.10;99.90;;;;;;5073983;28;20025;-65
2022/07/06 03:18:28;;;;;;;41.50;31.85;;;16.00;99.90;;;;;;5074267;28;20021;-64
2022/07/06 03:20:53;;;;;;;41.47;35.45;;;16.00;99.90;;;;;;5074160;28;20533;-65
2022/07/06 03:23:19;;;;;;;51.67;33.72;;;16.00;99.90;;;;;;5074444;28;20032;-64
2022/07/06 03:25:45;;;;;;;38.55;28.00;;;16.00;99.90;;;;;;5074352;28;20099;-64
2022/07/06 03:28:11;;;;;;;39.78;30.13;;;15.80;99.90;;;;;;5073398;28;20165;-65
2022/07/06 03:30:37;;;;;;;43.28;30.23;;;15.80;99.90;;;;;;5055688;28;20044;-66
2022/07/06 03:33:03;;;;;;;43.40;31.30;;;15.80;99.90;;;;;;5077266;28;20021;-67
2022/07/06 03:35:29;;;;;;;41.90;30.17;;;15.80;99.90;;;;;;5061861;28;20035;-65
2022/07/06 03:37:54;;;;;;;50.17;33.10;;;15.70;99.90;;;;;;5073329;28;20054;-66
2022/07/06 03:40:20;;;;;;;43.78;30.70;;;15.70;99.90;;;;;;5073383;28;20099;-62
2022/07/06 03:42:46;;;;;;;52.08;31.05;;;15.70;99.90;;;;;;5073692;28;20086;-63
2022/07/06 03:45:11;;;;;;;44.83;31.88;;;15.70;99.90;;;;;;5073637;28;20533;-64
2022/07/06 03:47:37;;;;;;;40.30;30.45;;;15.80;99.90;;;;;;5073273;28;20037;-64
2022/07/06 03:50:03;;;;;;;46.67;31.10;;;15.70;99.90;;;;;;5073291;28;20350;-63
2022/07/06 03:52:29;;;;;;;44.28;31.73;;;15.80;99.90;;;;;;5073150;28;20107;-63
2022/07/06 03:54:55;;;;;;;43.25;31.88;;;15.80;99.90;;;;;;5055190;28;20437;-64
2022/07/06 03:57:21;;;;;;;44.75;30.13;;;15.80;99.90;;;;;;5072987;28;20028;-65
2022/07/06 03:59:47;;;;;;;49.83;31.85;;;15.70;99.90;;;;;;5072970;28;20035;-64
2022/07/06 04:02:12;;;;;;;47.60;30.75;;;15.70;99.90;;;;;;5072925;28;20024;-66
2022/07/06 04:04:38;;;;;;;58.28;30.95;;;15.70;99.90;;;;;;5073176;28;20020;-65
2022/07/06 04:07:04;;;;;;;56.45;31.40;;;15.60;99.90;;;;;;5073187;28;20543;-66
2022/07/06 04:09:29;;;;;;;58.25;34.28;;;15.50;99.90;;;;;;5054785;28;20712;-64
2022/07/06 04:11:55;;;;;;;52.33;31.45;;;15.60;99.90;;;;;;5073055;28;20024;-63
2022/07/06 04:14:21;;;;;;;49.20;32.20;;;15.60;99.90;;;;;;5073032;28;20048;-65
2022/07/06 04:16:47;;;;;;;47.90;31.88;;;15.70;99.90;;;;;;5072651;28;20522;-65
2022/07/06 04:19:12;;;;;;;44.65;29.75;;;15.70;99.90;;;;;;5072696;28;20033;-66
2022/07/06 04:21:38;;;;;;;44.60;29.98;;;15.80;99.90;;;;;;5073172;28;20025;-65
2022/07/06 04:24:05;;;;;;;44.45;30.25;;;15.80;99.90;;;;;;5072974;28;20033;-68
2022/07/06 04:26:30;;;;;;;38.78;27.00;;;15.70;99.90;;;;;;5072957;28;20027;-64
2022/07/06 04:28:56;;;;;;;40.05;30.05;;;15.80;99.90;;;;;;5072561;28;20036;-65
2022/07/06 04:31:22;;;;;;;46.50;30.42;;;15.80;99.90;;;;;;5072592;28;20098;-64
2022/07/06 04:33:47;;;;;;;42.17;28.73;;;15.80;99.90;;;;;;5081279;28;20028;-66
2022/07/06 04:36:13;;;;;;;49.35;30.48;;;15.90;99.90;;;;;;5072473;28;20029;-66
2022/07/06 04:38:39;;;;;;;39.30;27.40;;;15.80;99.90;;;;;;5072448;28;20025;-67
2022/07/06 04:41:05;;;;;;;51.65;30.75;;;15.90;99.90;;;;;;5072427;28;20387;-65
2022/07/06 04:43:30;;;;;;;44.33;30.27;;;15.90;99.90;;;;;;5054080;28;20356;-65
2022/07/06 04:45:56;;;;;;;38.90;28.35;;;15.90;99.90;;;;;;5072315;28;20075;-67
2022/07/06 04:48:22;;;;;;;36.05;26.63;;;15.90;99.90;;;;;;5071990;28;20067;-66
2022/07/06 04:50:48;;;;;;;41.35;27.80;;;16.00;99.90;;;;;;5053985;28;20036;-65
2022/07/06 04:53:13;;;;;;;47.50;34.13;;;16.00;99.90;;;;;;5071865;28;20174;-66
2022/07/06 04:55:39;;;;;;;44.75;28.02;;;16.00;99.90;;;;;;5072074;28;20021;-65
2022/07/06 04:58:05;;;;;;;42.83;30.25;;;16.00;99.90;;;;;;5072392;28;20051;-65
2022/07/06 05:00:31;;;;;;;39.95;30.13;;;16.10;99.90;;;;;;5071865;28;20131;-65
2022/07/06 05:02:57;;;;;;;53.42;31.52;;;16.20;99.90;;;;;;5071978;28;20066;-64
2022/07/06 05:05:23;;;;;;;43.65;30.83;;;16.20;99.90;;;;;;5072109;28;20026;-64
2022/07/06 05:07:48;;;;;;;49.63;32.97;;;16.20;99.90;;;;;;5071118;28;20476;-62
2022/07/06 05:10:14;;;;;;;49.08;33.20;;;16.20;99.90;;;;;;5071671;28;20483;-64
2022/07/06 05:12:40;;;;;;;47.78;33.63;;;16.30;99.90;;;;;;5071661;28;20082;-63
2022/07/06 05:15:07;;;;;;;51.78;35.80;;;16.30;99.90;;;;;;5053681;28;20024;-64
2022/07/06 05:17:32;;;;;;;50.77;34.50;;;16.40;99.90;;;;;;5071680;28;20051;-65
2022/07/06 05:19:58;;;;;;;53.00;33.80;;;16.40;99.90;;;;;;5071785;28;20064;-65
2022/07/06 05:22:24;;;;;;;52.33;33.50;;;16.40;99.90;;;;;;5072232;28;20158;-66
2022/07/06 05:24:50;;;;;;;55.35;33.22;;;16.50;99.90;;;;;;5071681;28;20718;-65
2022/07/06 05:27:16;;;;;;;51.15;32.63;;;16.50;99.90;;;;;;5071348;28;20460;-68
2022/07/06 05:29:42;;;;;;;46.47;33.10;;;16.60;99.90;;;;;;5071612;28;20115;-66
2022/07/06 05:32:08;;;;;;;51.58;33.75;;;16.70;99.90;;;;;;5074154;28;20419;-66
2022/07/06 05:34:35;;;;;;;54.55;34.10;;;16.70;99.90;;;;;;5077387;28;20032;-65
2022/07/06 05:37:00;;;;;;;;;;;16.80;99.90;;;;;;5071624;28;20028;-67
2022/07/06 05:39:26;;;;;;;48.50;31.17;;;16.90;99.90;;;;;;5071061;28;19930;-66
2022/07/06 05:41:52;;;;;;;42.83;30.77;;;16.90;99.90;;;;;;5071154;28;20063;-65
2022/07/06 05:44:17;;;;;;;43.65;28.77;;;16.90;99.90;;;;;;5070980;28;20080;-66
2022/07/06 05:46:43;;;;;;;40.53;28.20;;;16.80;99.90;;;;;;5070857;28;20032;-63
2022/07/06 05:51:53;;;;;;;45.08;30.65;;;16.70;99.90;;;;;;5071016;28;20085;-69
2022/07/06 05:54:19;;;;;;;40.70;29.05;;;16.80;99.90;;;;;;5071085;28;20111;-68
2022/07/06 05:56:45;;;;;;;44.38;29.67;;;16.80;99.90;;;;;;5070589;28;20054;-67
2022/07/06 05:59:10;;;;;;;42.78;29.92;;;16.90;99.90;;;;;;5070955;28;20024;-66
2022/07/06 06:01:36;;;;;;;37.10;25.88;;;17.00;99.90;;;;;;5070904;28;20029;-68
2022/07/06 06:04:02;;;;;;;36.70;24.52;;;17.00;99.90;;;;;;5070688;28;20112;-68
2022/07/06 06:06:27;;;;;;;33.20;24.40;;;17.00;99.90;;;;;;5070758;28;20468;-68
2022/07/06 06:08:53;;;;;;;41.70;26.48;;;16.90;99.90;;;;;;5070850;28;20040;-66
2022/07/06 06:11:18;;;;;;;36.25;25.50;;;17.00;99.90;;;;;;5070677;28;20020;-69
2022/07/06 06:13:44;;;;;;;41.38;27.27;;;17.00;99.90;;;;;;5070655;28;20029;-67
2022/07/06 06:16:10;;;;;;;43.22;26.67;;;17.10;99.90;;;;;;5070770;28;20025;-68
2022/07/06 06:18:36;;;;;;;29.25;21.95;;;17.10;99.90;;;;;;5069999;28;20025;-67
2022/07/06 06:21:02;;;;;;;26.45;21.30;;;16.90;99.90;;;;;;5070764;28;20035;-68
2022/07/06 06:23:27;;;;;;;25.08;20.98;;;16.90;99.90;;;;;;5070497;28;20021;-68
2022/07/06 06:25:53;;;;;;;27.25;20.50;;;16.80;99.90;;;;;;5070319;28;20036;-69
2022/07/06 06:28:19;;;;;;;25.50;20.35;;;16.80;99.90;;;;;;5052418;28;20032;-69
2022/07/06 06:30:44;;;;;;;26.90;22.45;;;16.70;99.90;;;;;;5070394;28;20032;-67
2022/07/06 06:33:16;;;;;;;27.90;20.60;;;16.60;99.90;;;;;;5077495;28;20080;-68
2022/07/06 06:35:44;;;;;;;28.77;20.90;;;16.70;99.90;;;;;;5052520;28;20052;-70
2022/07/06 06:38:10;;;;;;;33.17;21.05;;;16.80;99.90;;;;;;5070325;28;20487;-66
2022/07/06 06:40:36;;;;;;;25.65;19.55;;;16.90;99.90;;;;;;5070233;28;20476;-67
2022/07/06 06:43:01;;;;;;;28.95;20.38;;;16.90;99.90;;;;;;5052229;28;20032;-66
2022/07/06 06:45:27;;;;;;;30.15;23.20;;;16.90;99.90;;;;;;5070433;28;20025;-69
2022/07/06 06:47:53;;;;;;;31.00;23.52;;;16.90;99.90;;;;;;5069778;28;20048;-66
2022/07/06 06:50:18;;;;;;;31.67;23.27;;;16.90;99.90;;;;;;5070450;28;20020;-69
2022/07/06 06:52:44;;;;;;;29.05;22.42;;;16.80;99.90;;;;;;5070555;28;20024;-69
2022/07/06 06:55:10;;;;;;;29.58;22.40;;;16.90;99.90;;;;;;5070394;28;20543;-69
2022/07/06 06:57:36;;;;;;;29.48;22.13;;;16.90;99.90;;;;;;5070352;28;20485;-66
2022/07/06 07:00:04;;;;;;;30.70;22.42;;;16.90;99.90;;;;;;5047109;28;20058;-67
2022/07/06 07:02:29;;;;;;;27.73;22.67;;;16.90;99.90;;;;;;5050133;28;20021;-68
2022/07/06 07:04:55;;;;;;;29.40;20.83;;;16.80;99.90;;;;;;5050343;28;20040;-69
2022/07/06 07:07:21;;;;;;;32.33;21.45;;;16.80;99.90;;;;;;5049853;28;20029;-68
2022/07/06 07:09:46;;;;;;;22.77;18.20;;;16.90;99.90;;;;;;5050114;28;20107;-67
2022/07/06 07:12:14;;;;;;;23.42;16.95;;;16.90;99.90;;;;;;5050093;28;20107;-68
2022/07/06 07:14:40;;;;;;;20.00;15.13;;;16.90;99.90;;;;;;5050159;28;20021;-68
2022/07/06 07:17:06;;;;;;;19.33;13.63;;;16.90;99.90;;;;;;5050098;28;20052;-69
2022/07/06 07:19:32;;;;;;;20.50;12.50;;;16.80;99.90;;;;;;5050700;28;20103;-72
2022/07/06 07:21:57;;;;;;;17.23;11.05;;;16.80;99.90;;;;;;5050060;28;20025;-71
2022/07/06 07:24:23;;;;;;;13.68;10.00;;;16.90;99.90;;;;;;5050067;28;20021;-71
2022/07/06 07:26:49;;;;;;;11.80;8.23;;;17.00;99.90;;;;;;5050033;28;20055;-71
2022/07/06 07:29:15;;;;;;;11.80;7.55;;;17.00;99.90;;;;;;5050589;28;20507;-70
2022/07/06 07:31:41;;;;;;;9.90;7.78;;;17.00;99.90;;;;;;5057401;28;20085;-71
2022/07/06 07:34:07;;;;;;;13.63;8.10;;;16.90;99.90;;;;;;5058064;28;20052;-70
2022/07/06 07:36:33;;;;;;;10.45;6.82;;;17.00;99.90;;;;;;5053506;28;20400;-70
2022/07/06 07:38:58;;;;;;;14.35;6.15;;;17.00;99.90;;;;;;5053509;28;20029;-69
2022/07/06 07:41:24;;;;;;;12.10;5.97;;;17.00;99.90;;;;;;5064493;28;20082;-70
2022/07/06 07:43:50;;;;;;;10.32;6.25;;;17.00;99.90;;;;;;5073389;28;20116;-71
2022/07/06 07:46:15;;;;;;;8.65;5.20;;;17.00;99.90;;;;;;5073360;28;20123;-70
2022/07/06 07:48:41;;;;;;;9.60;5.47;;;17.20;99.90;;;;;;5073086;28;20170;-71
2022/07/06 07:51:07;;;;;;;11.02;6.78;;;17.40;99.90;;;;;;5073234;28;20046;-70
2022/07/06 07:53:33;;;;;;;9.80;5.13;;;17.50;99.90;;;;;;5073577;28;20086;-71
2022/07/06 07:55:58;;;;;;;6.65;5.22;;;17.50;99.90;;;;;;5073081;28;20118;-70
2022/07/06 07:58:24;;;;;;;10.88;5.78;;;17.50;99.90;;;;;;5072930;28;20028;-68
2022/07/06 08:00:50;;;;;;;8.27;4.80;;;17.50;99.90;;;;;;5072603;28;20039;-68
2022/07/06 08:03:16;;;;;;;5.63;4.50;;;17.60;99.90;;;;;;5073084;28;20137;-68
2022/07/06 08:05:41;;;;;;;12.50;6.15;;;17.70;99.90;;;;;;5072895;28;20025;-70
2022/07/06 08:08:07;;;;;;;7.78;5.22;;;17.70;99.90;;;;;;5054782;28;20025;-67
2022/07/06 08:10:33;;;;;;;8.95;4.90;;;17.90;99.90;;;;;;5073232;28;20095;-68
2022/07/06 08:12:58;;;;;;;9.18;5.25;;;17.80;99.90;;;;;;5055148;28;20024;-70
2022/07/06 08:15:24;;;;;;;5.90;4.65;;;17.80;99.90;;;;;;5073321;28;20040;-69
2022/07/06 08:17:50;;;;;;;7.32;4.95;;;17.80;99.90;;;;;;5073241;28;20036;-67
2022/07/06 08:20:16;;;;;;;10.00;4.68;;;17.90;99.90;;;;;;5073360;28;20024;-67
2022/07/06 08:22:43;;;;;;;5.80;4.35;;;17.90;99.90;;;;;;5072827;28;20550;-69
2022/07/06 08:25:12;;;;;;;7.43;4.88;;;18.00;99.90;;;;;;5054563;28;20373;-67
2022/07/06 08:27:37;;;;;;;6.85;4.30;;;18.00;99.90;;;;;;5072200;28;20034;-67
2022/07/06 08:30:05;;;;;;;5.20;4.10;;;18.10;99.90;;;;;;5072907;28;20031;-67
2022/07/06 08:32:30;;;;;;;5.90;4.43;;;18.10;99.90;;;;;;5081265;28;20032;-70
2022/07/06 08:34:56;;;;;;;6.53;4.53;;;18.10;99.90;;;;;;5072526;28;20021;-69
2022/07/06 08:37:22;;;;;;;8.88;4.15;;;18.10;99.90;;;;;;5072514;28;20384;-67
2022/07/06 08:39:47;;;;;;;5.97;4.70;;;18.10;99.90;;;;;;5054261;28;20119;-67
2022/07/06 08:42:16;;;;;;;7.00;4.45;;;18.20;99.90;;;;;;5052340;28;20078;-65
2022/07/06 08:44:43;;;;;;;5.45;3.90;;;18.20;99.90;;;;;;5070903;28;20025;-67
2022/07/06 08:47:10;;;;;;;5.20;3.70;;;18.40;99.90;;;;;;5071910;28;20070;-68
2022/07/06 08:49:36;;;;;;;6.85;3.40;;;18.40;99.90;;;;;;5071374;28;20060;-66
2022/07/06 08:52:04;;;;;;;5.60;3.20;;;18.40;99.90;;;;;;5071881;28;20116;-73
2022/07/06 08:54:30;;;;;;;6.05;3.10;;;18.50;99.90;;;;;;5070880;28;20025;-69
2022/07/06 08:56:59;;;;;;;3.80;2.47;;;18.50;99.90;;;;;;5071147;28;20032;-70
2022/07/06 08:59:25;;;;;;;3.50;2.80;;;18.50;99.90;;;;;;5071940;28;20495;-70
2022/07/06 09:01:51;;;;;;;4.90;2.97;;;18.50;99.90;;;;;;5053982;28;20067;-73
2022/07/06 09:04:21;;;;;;;3.17;2.00;;;18.60;99.90;;;;;;5071872;28;20048;-71
2022/07/06 09:06:48;;;;;;;2.78;2.10;;;18.60;99.90;;;;;;5071834;28;20051;-71
2022/07/06 09:09:20;;;;;;;3.42;2.25;;;18.70;99.90;;;;;;5071674;28;20071;-73
2022/07/06 09:11:46;;;;;;;3.78;2.17;;;18.70;99.90;;;;;;5070908;28;20681;-73
2022/07/06 09:14:13;;;;;;;5.28;2.10;;;18.90;99.90;;;;;;5071340;28;20103;-72
2022/07/06 09:16:38;;;;;;;2.90;1.70;;;19.00;99.90;;;;;;5052812;28;20028;-73
2022/07/06 09:19:06;;;;;;;2.30;1.70;;;19.10;99.90;;;;;;5071861;28;20275;-72
2022/07/06 09:21:32;;;;;;;;;;;19.20;99.90;;;;;;5071901;28;20033;-71
2022/07/06 09:24:02;;;;;;;3.30;1.75;;;19.40;99.90;;;;;;5069758;28;19936;-71
2022/07/06 09:26:28;;;;;;;2.88;1.92;;;19.30;99.90;;;;;;5069706;28;20025;-71
2022/07/06 09:28:56;;;;;;;5.80;1.40;;;19.30;99.90;;;;;;5069814;28;20484;-73
2022/07/06 09:31:22;;;;;;;2.40;1.63;;;19.30;99.90;;;;;;5077967;28;20046;-72
2022/07/06 09:34:03;;;;;;;3.33;1.48;;;19.30;99.90;;;;;;5071520;28;20480;-72
2022/07/06 09:36:48;;;;;;;3.20;1.40;;;19.40;99.90;;;;;;5069908;28;20089;-74
2022/07/06 09:39:27;;;;;;;2.38;1.63;;;19.50;99.90;;;;;;5071501;28;20180;-73
2022/07/06 09:41:57;;;;;;;4.13;2.30;;;19.50;99.90;;;;;;5068083;28;20032;-75
2022/07/06 09:44:31;;;;;;;4.45;2.47;;;19.60;99.90;;;;;;5068441;28;20024;-74
2022/07/06 09:46:59;;;;;;;5.32;1.80;;;19.60;99.90;;;;;;5069345;28;20036;-72
2022/07/06 09:49:26;;;;;;;4.25;2.20;;;19.70;99.90;;;;;;5061809;28;20048;-74
2022/07/06 09:51:57;;;;;;;9.27;3.63;;;19.70;99.90;;;;;;5061073;28;20021;-71
2022/07/06 09:54:23;;;;;;;6.40;2.85;;;19.80;99.90;;;;;;5059695;28;20271;-73
2022/07/06 09:56:51;;;;;;;3.92;2.33;;;20.10;99.90;;;;;;5061401;28;20031;-73
2022/07/06 09:59:18;;;;;;;;;;;20.30;99.90;;;;;;5069438;28;20047;-68
2022/07/06 10:01:44;;;;;;;3.55;1.60;;;20.30;99.90;;;;;;5067279;28;20374;-72
2022/07/06 10:04:18;;;;;;;4.83;2.27;;;20.60;99.90;;;;;;5061463;28;20035;-70
2022/07/06 10:06:44;;;;;;;2.70;1.75;;;20.60;99.90;;;;;;5059435;28;20039;-70
2022/07/06 10:09:11;;;;;;;3.30;1.85;;;20.70;99.90;;;;;;5042791;28;20060;-71
2022/07/06 10:12:05;;;;;;;3.67;2.75;;;21.10;99.90;;;;;;5059446;28;20024;-74
2022/07/06 10:14:32;;;;;;;3.33;1.83;;;21.40;99.90;;;;;;5059137;28;20036;-73
2022/07/06 10:17:00;;;;;;;3.53;1.90;;;21.40;99.90;;;;;;5059076;28;20116;-74
2022/07/06 10:19:27;;;;;;;4.43;1.83;;;21.30;99.90;;;;;;5067604;28;20586;-72
2022/07/06 10:21:53;;;;;;;3.42;1.60;;;21.40;99.90;;;;;;5044289;28;20115;-72
2022/07/06 10:24:22;;;;;;;2.60;1.58;;;21.40;99.90;;;;;;5049296;28;20104;-71
2022/07/06 10:26:48;;;;;;;3.15;1.85;;;21.70;99.90;;;;;;5067715;28;20052;-74
2022/07/06 10:29:14;;;;;;;7.75;1.95;;;21.90;99.90;;;;;;5070624;28;20079;-72
2022/07/06 10:31:44;;;;;;;7.50;1.92;;;22.20;99.90;;;;;;5063310;28;20099;-72
2022/07/06 10:34:12;;;;;;;5.13;2.20;;;22.20;99.90;;;;;;5071665;28;20051;-74
2022/07/06 10:36:40;;;;;;;6.72;3.70;;;22.10;99.90;;;;;;5070784;28;20024;-65
2022/07/06 10:41:52;;;;;;;3.13;1.90;;;21.60;99.90;;;;;;5069224;28;20036;-67
2022/07/06 10:44:24;;;;;;;6.32;3.38;;;21.70;99.90;;;;;;5069709;28;20025;-66
2022/07/06 10:46:57;;;;;;;3.22;2.00;;;21.80;99.90;;;;;;5068497;28;20021;-65
2022/07/06 10:49:24;;;;;;;5.10;1.63;;;21.80;99.90;;;;;;5067192;28;20082;-66
2022/07/06 10:51:51;;;;;;;2.92;1.77;;;21.80;99.90;;;;;;5045339;28;20024;-65
2022/07/06 10:54:19;;;;;;;4.10;1.87;;;21.90;99.90;;;;;;5058897;28;20036;-67
2022/07/06 10:56:47;;;;;;;4.15;2.33;;;21.70;99.90;;;;;;5059513;28;20057;-66
2022/07/06 10:59:17;;;;;;;4.90;2.10;;;21.70;99.90;;;;;;5060395;28;20387;-67
2022/07/06 11:02:14;;;;;;;5.25;1.48;;;21.80;99.90;;;;;;5058062;28;20021;-65
2022/07/06 11:04:42;;;;;;;4.03;1.65;;;21.90;99.90;;;;;;5059907;28;20108;-67
2022/07/06 11:07:10;;;;;;;4.57;1.77;;;21.80;99.90;;;;;;5064367;28;20039;-68
2022/07/06 11:09:37;;;;;;;;;;;21.90;99.90;;;;;;5070055;28;20044;-63
2022/07/06 11:12:20;;;;;;;2.92;1.63;;;21.80;99.90;;;;;;5073442;28;19904;-62
2022/07/06 11:14:47;;;;;;;2.95;1.50;;;21.70;99.90;;;;;;5070402;28;20506;-66
2022/07/06 11:17:13;;;;;;;4.18;1.83;;;21.70;99.90;;;;;;5072433;28;20032;-67
2022/07/06 11:20:07;;;;;;;2.45;1.20;;;21.70;99.90;;;;;;5074040;28;20136;-66
2022/07/06 11:22:37;;;;;;;2.92;1.55;;;21.50;99.90;;;;;;5074166;28;20029;-67
2022/07/06 11:25:03;;;;;;;2.83;1.55;;;21.50;99.90;;;;;;5074124;28;20073;-69
2022/07/06 11:27:29;;;;;;;1.88;1.40;;;21.50;99.90;;;;;;5073872;28;20028;-69
2022/07/06 11:29:55;;;;;;;3.65;1.80;;;21.50;99.90;;;;;;5051033;28;20041;-63
2022/07/06 11:32:26;;;;;;;2.05;1.30;;;21.50;99.90;;;;;;5082506;28;20464;-64
2022/07/06 11:34:52;;;;;;;4.28;1.67;;;21.60;99.90;;;;;;5070330;28;20024;-68
2022/07/06 11:37:18;;;;;;;1.77;1.40;;;21.40;99.90;;;;;;5055729;28;20031;-65
2022/07/06 11:39:46;;;;;;;3.25;1.33;;;21.10;99.90;;;;;;5073694;28;20016;-67
2022/07/06 11:42:15;;;;;;;1.75;1.27;;;21.30;99.90;;;;;;5072904;28;20035;-70
2022/07/06 11:44:42;;;;;;;2.03;1.13;;;21.40;99.90;;;;;;5073434;28;20098;-66
2022/07/06 11:47:09;;;;;;;2.20;1.42;;;21.50;99.90;;;;;;5070541;28;20426;-69
2022/07/06 11:49:37;;;;;;;2.65;1.63;;;22.00;99.90;;;;;;5072905;28;20091;-62
2022/07/06 11:52:08;;;;;;;2.05;1.50;;;21.80;99.90;;;;;;5073114;28;20119;-65
2022/07/06 11:54:34;;;;;;;4.30;1.77;;;21.50;99.90;;;;;;5073372;28;20024;-67
2022/07/06 11:57:00;;;;;;;4.95;1.60;;;21.80;99.90;;;;;;5071664;28;20032;-67
2022/07/06 11:59:26;;;;;;;6.18;1.52;;;21.90;99.90;;;;;;5068895;28;20025;-69
2022/07/06 12:02:06;;;;;;;4.22;1.70;;;22.20;99.90;;;;;;5071821;28;20025;-66
2022/07/06 12:04:42;;;;;;;4.63;1.60;;;22.40;99.90;;;;;;5052898;28;20080;-67
2022/07/06 12:07:14;;;;;;;3.65;1.40;;;22.40;99.90;;;;;;5053283;28;20063;-66
2022/07/06 12:09:42;;;;;;;3.05;1.42;;;22.70;99.90;;;;;;5051449;28;20029;-69
2022/07/06 12:12:09;;;;;;;1.85;1.40;;;22.70;99.90;;;;;;5053041;28;20548;-69
2022/07/06 12:14:36;;;;;;;2.33;1.50;;;22.70;99.90;;;;;;5052974;28;20037;-69
2022/07/06 12:17:07;;;;;;;3.45;2.15;;;22.40;99.90;;;;;;5052567;28;20143;-69
2022/07/06 12:19:34;;;;;;;6.13;3.17;;;22.20;99.90;;;;;;5052387;28;20067;-67
2022/07/06 12:22:01;;;;;;;3.60;1.98;;;22.10;99.90;;;;;;5052706;28;20052;-69
2022/07/06 12:24:31;;;;;;;5.13;1.92;;;22.10;99.90;;;;;;5052990;28;20029;-69
2022/07/06 12:26:58;;;;;;;3.72;1.90;;;22.40;99.90;;;;;;5053037;28;20329;-67
2022/07/06 12:29:24;;;;;;;3.85;2.22;;;22.70;99.90;;;;;;5052855;28;20043;-71
2022/07/06 12:31:55;;;;;;;2.72;1.85;;;22.70;99.90;;;;;;5060081;28;20032;-69
2022/07/06 12:34:26;;;;;;;4.15;2.20;;;22.60;99.90;;;;;;5051568;28;20460;-71
2022/07/06 12:36:54;;;;;;;4.13;2.03;;;22.80;99.90;;;;;;5032945;28;20032;-68
2022/07/06 12:39:22;;;;;;;2.58;2.00;;;22.40;99.90;;;;;;5051271;28;20029;-69
2022/07/06 12:41:53;;;;;;;2.70;1.80;;;22.40;99.90;;;;;;5050938;28;20069;-67
2022/07/06 12:44:24;;;;;;;2.88;1.60;;;22.90;99.90;;;;;;5051115;28;20021;-67
2022/07/06 12:47:10;;;;;;;1.35;1.25;;;23.10;99.90;;;;;;5051585;28;20032;-68